Главная страница
METAR-TAF:

METAR-TAF

Аэропорты :

Киль, Германия

широта: 54-23N, долгота: 010-10E, высота над уровнем моря: 31 м

Текущие метеонаблюдения

Эта сводка был подготовлена 7 часа и 5 минут назад, в 14:50 UTC
Температура 22°C
Влажность 35%
Давление 1009 hPa
Видимость 10 км и более
Нет облачности ниже 1500 м, и нет кучево-дождевой облачности

METAR: EDHK 251450Z /////KT CAVOK 22/06 Q1009

Время: 23:55 (21:55 UTC)

Прогноз

Эта сводка был подготовлена 7 часа и 55 минут назад, в 14:00 UTC
Прогноз действительный с 25-го 15 UTC до 25-го 18 UTC
Ветер 8 Узел от южный
Видимость 10 км и более
Нет облачности ниже 1500 м, и нет кучево-дождевой облачности
изменения
С 25-го 15 UTC до 25-го 17 UTC
Ветер 7 Узел от восточный

TAF: EDHK 251400Z 2515/2518 17008KT CAVOK BECMG 2515/2517 10007KT

Метеонаблюдения и прогнозы для более 4000 аэропортов (сводки METAR и TAF).

Имеющиеся станции представлены на карте желтыми и красными точками.

Чтобы увидеть название станции, наведите на нее мышь.

Затем щелкните, чтобы увидеть метеонаблюдения и метеопрогнозы.

Управление картой: чтобы увеличить масштаб, щелкните зеленые кнопки с черным крестиком; чтобы уменьшить масштаб, щелкните зеленую кнопку с тире; для просмотра соседних карт щелкайте зеленые стрелки.


METAR-TAF: